sensor_id;sensor_type;location;lat;lon;timestamp;P1;durP1;ratioP1;P2;durP2;ratioP2
1523;SDS011;755;53.658;10.118;2022-09-12T00:09:18;5.68;;;2.90;;
1523;SDS011;755;53.658;10.118;2022-09-12T00:19:20;4.28;;;2.78;;
1523;SDS011;755;53.658;10.118;2022-09-12T00:29:23;4.20;;;3.03;;
1523;SDS011;755;53.658;10.118;2022-09-12T00:39:25;4.22;;;2.92;;
1523;SDS011;755;53.658;10.118;2022-09-12T00:49:29;5.43;;;2.75;;
1523;SDS011;755;53.658;10.118;2022-09-12T00:59:34;5.75;;;2.47;;
1523;SDS011;755;53.658;10.118;2022-09-12T01:09:42;4.18;;;2.40;;
1523;SDS011;755;53.658;10.118;2022-09-12T01:30:42;6.45;;;3.70;;
1523;SDS011;755;53.658;10.118;2022-09-12T01:40:48;6.78;;;3.95;;
1523;SDS011;755;53.658;10.118;2022-09-12T01:51:00;4.88;;;2.75;;
1523;SDS011;755;53.658;10.118;2022-09-12T02:01:09;9.38;;;3.25;;
1523;SDS011;755;53.658;10.118;2022-09-12T02:11:16;9.98;;;3.90;;
1523;SDS011;755;53.658;10.118;2022-09-12T02:21:19;6.00;;;3.53;;
1523;SDS011;755;53.658;10.118;2022-09-12T02:31:26;6.05;;;3.08;;
1523;SDS011;755;53.658;10.118;2022-09-12T02:41:30;5.43;;;3.22;;
1523;SDS011;755;53.658;10.118;2022-09-12T02:51:34;4.75;;;3.38;;
1523;SDS011;755;53.658;10.118;2022-09-12T03:01:41;5.03;;;3.03;;
1523;SDS011;755;53.658;10.118;2022-09-12T03:12:00;5.72;;;2.97;;
1523;SDS011;755;53.658;10.118;2022-09-12T03:22:09;5.35;;;2.90;;
1523;SDS011;755;53.658;10.118;2022-09-12T03:42:19;5.15;;;3.20;;
1523;SDS011;755;53.658;10.118;2022-09-12T03:52:22;4.22;;;2.55;;
1523;SDS011;755;53.658;10.118;2022-09-12T04:02:24;4.85;;;2.40;;
1523;SDS011;755;53.658;10.118;2022-09-12T04:12:29;2.67;;;2.10;;
1523;SDS011;755;53.658;10.118;2022-09-12T04:22:31;4.20;;;2.05;;
1523;SDS011;755;53.658;10.118;2022-09-12T04:32:34;6.60;;;2.03;;
1523;SDS011;755;53.658;10.118;2022-09-12T04:42:36;3.38;;;1.63;;
1523;SDS011;755;53.658;10.118;2022-09-12T04:52:40;3.55;;;1.88;;
1523;SDS011;755;53.658;10.118;2022-09-12T05:02:42;3.22;;;2.03;;
1523;SDS011;755;53.658;10.118;2022-09-12T05:12:45;3.10;;;1.80;;
1523;SDS011;755;53.658;10.118;2022-09-12T05:22:47;2.10;;;1.80;;
1523;SDS011;755;53.658;10.118;2022-09-12T05:32:51;4.95;;;2.25;;
1523;SDS011;755;53.658;10.118;2022-09-12T05:42:53;3.15;;;2.15;;
1523;SDS011;755;53.658;10.118;2022-09-12T05:52:56;5.35;;;2.58;;
1523;SDS011;755;53.658;10.118;2022-09-12T06:02:58;4.28;;;2.40;;
1523;SDS011;755;53.658;10.118;2022-09-12T06:13:03;3.80;;;3.03;;
1523;SDS011;755;53.658;10.118;2022-09-12T06:23:05;7.07;;;3.30;;
1523;SDS011;755;53.658;10.118;2022-09-12T06:33:08;5.53;;;4.13;;
1523;SDS011;755;53.658;10.118;2022-09-12T06:43:10;20.85;;;12.05;;
1523;SDS011;755;53.658;10.118;2022-09-12T06:53:15;20.83;;;13.23;;
1523;SDS011;755;53.658;10.118;2022-09-12T07:03:17;22.98;;;14.88;;
1523;SDS011;755;53.658;10.118;2022-09-12T07:13:21;23.38;;;14.80;;
1523;SDS011;755;53.658;10.118;2022-09-12T07:23:22;22.42;;;16.17;;
1523;SDS011;755;53.658;10.118;2022-09-12T07:33:26;14.55;;;11.60;;
1523;SDS011;755;53.658;10.118;2022-09-12T07:43:29;10.88;;;9.02;;
1523;SDS011;755;53.658;10.118;2022-09-12T07:53:32;9.75;;;6.82;;
1523;SDS011;755;53.658;10.118;2022-09-12T08:03:36;12.65;;;3.83;;
1523;SDS011;755;53.658;10.118;2022-09-12T08:13:39;5.70;;;3.95;;
1523;SDS011;755;53.658;10.118;2022-09-12T08:23:43;5.68;;;3.53;;
1523;SDS011;755;53.658;10.118;2022-09-12T08:33:47;5.07;;;3.10;;
1523;SDS011;755;53.658;10.118;2022-09-12T08:43:57;3.55;;;2.60;;
1523;SDS011;755;53.658;10.118;2022-09-12T08:54:22;3.40;;;2.67;;
1523;SDS011;755;53.658;10.118;2022-09-12T09:04:33;3.15;;;2.60;;
1523;SDS011;755;53.658;10.118;2022-09-12T09:14:51;9.32;;;2.67;;
1523;SDS011;755;53.658;10.118;2022-09-12T09:25:05;4.68;;;1.50;;
1523;SDS011;755;53.658;10.118;2022-09-12T09:35:28;2.95;;;1.75;;
1523;SDS011;755;53.658;10.118;2022-09-12T09:45:39;1.23;;;0.98;;
1523;SDS011;755;53.658;10.118;2022-09-12T09:55:42;1.08;;;0.93;;
1523;SDS011;755;53.658;10.118;2022-09-12T10:05:46;0.93;;;0.93;;
1523;SDS011;755;53.658;10.118;2022-09-12T10:15:57;2.05;;;0.93;;
1523;SDS011;755;53.658;10.118;2022-09-12T10:26:02;1.67;;;1.02;;
1523;SDS011;755;53.658;10.118;2022-09-12T10:46:27;4.55;;;0.73;;
1523;SDS011;755;53.658;10.118;2022-09-12T10:56:31;4.63;;;1.10;;
1523;SDS011;755;53.658;10.118;2022-09-12T11:06:41;3.17;;;1.90;;
1523;SDS011;755;53.658;10.118;2022-09-12T11:16:55;4.70;;;1.30;;
1523;SDS011;755;53.658;10.118;2022-09-12T11:27:07;4.40;;;1.77;;
1523;SDS011;755;53.658;10.118;2022-09-12T11:37:35;4.18;;;1.50;;
1523;SDS011;755;53.658;10.118;2022-09-12T11:47:52;3.00;;;1.55;;
1523;SDS011;755;53.658;10.118;2022-09-12T11:57:58;4.33;;;1.90;;
1523;SDS011;755;53.658;10.118;2022-09-12T12:08:02;3.78;;;1.48;;
1523;SDS011;755;53.658;10.118;2022-09-12T12:18:12;5.38;;;1.48;;
1523;SDS011;755;53.658;10.118;2022-09-12T12:38:59;3.80;;;1.27;;
1523;SDS011;755;53.658;10.118;2022-09-12T12:49:49;9.43;;;3.97;;
1523;SDS011;755;53.658;10.118;2022-09-12T12:59:55;4.18;;;1.33;;
1523;SDS011;755;53.658;10.118;2022-09-12T13:10:00;4.40;;;1.63;;
1523;SDS011;755;53.658;10.118;2022-09-12T13:30:27;1.48;;;1.27;;
1523;SDS011;755;53.658;10.118;2022-09-12T13:40:32;2.15;;;1.17;;
1523;SDS011;755;53.658;10.118;2022-09-12T13:50:41;6.10;;;1.52;;
1523;SDS011;755;53.658;10.118;2022-09-12T14:01:04;5.25;;;1.50;;
1523;SDS011;755;53.658;10.118;2022-09-12T14:11:08;2.25;;;1.30;;
1523;SDS011;755;53.658;10.118;2022-09-12T14:21:16;2.67;;;1.35;;
1523;SDS011;755;53.658;10.118;2022-09-12T14:31:31;7.97;;;4.53;;
1523;SDS011;755;53.658;10.118;2022-09-12T14:41:37;3.00;;;1.20;;
1523;SDS011;755;53.658;10.118;2022-09-12T14:51:42;2.70;;;1.05;;
1523;SDS011;755;53.658;10.118;2022-09-12T15:12:25;3.13;;;1.55;;
1523;SDS011;755;53.658;10.118;2022-09-12T15:22:28;4.22;;;1.58;;
1523;SDS011;755;53.658;10.118;2022-09-12T15:32:32;4.07;;;1.98;;
1523;SDS011;755;53.658;10.118;2022-09-12T15:42:36;3.58;;;1.63;;
1523;SDS011;755;53.658;10.118;2022-09-12T15:52:37;2.17;;;1.20;;
1523;SDS011;755;53.658;10.118;2022-09-12T16:02:41;4.75;;;1.17;;
1523;SDS011;755;53.658;10.118;2022-09-12T16:12:44;2.10;;;1.60;;
1523;SDS011;755;53.658;10.118;2022-09-12T16:22:47;3.67;;;1.30;;
1523;SDS011;755;53.658;10.118;2022-09-12T16:32:50;4.35;;;1.70;;
1523;SDS011;755;53.658;10.118;2022-09-12T16:42:53;3.33;;;1.98;;
1523;SDS011;755;53.658;10.118;2022-09-12T16:52:55;2.25;;;1.75;;
1523;SDS011;755;53.658;10.118;2022-09-12T17:03:00;3.72;;;2.03;;
1523;SDS011;755;53.658;10.118;2022-09-12T17:13:02;4.55;;;2.33;;
1523;SDS011;755;53.658;10.118;2022-09-12T17:23:05;14.75;;;2.47;;
1523;SDS011;755;53.658;10.118;2022-09-12T17:33:07;4.35;;;2.50;;
1523;SDS011;755;53.658;10.118;2022-09-12T17:43:10;5.20;;;2.45;;
1523;SDS011;755;53.658;10.118;2022-09-12T17:53:12;2.90;;;2.17;;
1523;SDS011;755;53.658;10.118;2022-09-12T18:03:18;3.70;;;2.45;;
1523;SDS011;755;53.658;10.118;2022-09-12T18:13:22;5.18;;;2.72;;
1523;SDS011;755;53.658;10.118;2022-09-12T18:23:26;4.95;;;2.90;;
1523;SDS011;755;53.658;10.118;2022-09-12T18:33:28;6.22;;;2.80;;
1523;SDS011;755;53.658;10.118;2022-09-12T18:43:31;4.40;;;3.25;;
1523;SDS011;755;53.658;10.118;2022-09-12T18:53:33;6.30;;;3.30;;
1523;SDS011;755;53.658;10.118;2022-09-12T19:03:38;4.10;;;3.20;;
1523;SDS011;755;53.658;10.118;2022-09-12T19:13:41;3.75;;;2.80;;
1523;SDS011;755;53.658;10.118;2022-09-12T19:23:45;3.35;;;2.20;;
1523;SDS011;755;53.658;10.118;2022-09-12T19:33:48;5.88;;;2.45;;
1523;SDS011;755;53.658;10.118;2022-09-12T19:43:54;2.90;;;2.53;;
1523;SDS011;755;53.658;10.118;2022-09-12T19:53:56;4.05;;;2.42;;
1523;SDS011;755;53.658;10.118;2022-09-12T20:04:00;5.03;;;2.45;;
1523;SDS011;755;53.658;10.118;2022-09-12T20:14:02;4.40;;;2.50;;
1523;SDS011;755;53.658;10.118;2022-09-12T20:24:06;3.47;;;2.30;;
1523;SDS011;755;53.658;10.118;2022-09-12T20:34:14;6.13;;;2.35;;
1523;SDS011;755;53.658;10.118;2022-09-12T20:54:22;5.28;;;2.85;;
1523;SDS011;755;53.658;10.118;2022-09-12T21:04:50;3.55;;;2.80;;
1523;SDS011;755;53.658;10.118;2022-09-12T21:15:02;6.22;;;3.40;;
1523;SDS011;755;53.658;10.118;2022-09-12T21:25:07;4.60;;;3.17;;
1523;SDS011;755;53.658;10.118;2022-09-12T21:35:10;10.57;;;3.10;;
1523;SDS011;755;53.658;10.118;2022-09-12T21:45:16;6.90;;;3.28;;
1523;SDS011;755;53.658;10.118;2022-09-12T21:55:21;4.78;;;3.28;;
1523;SDS011;755;53.658;10.118;2022-09-12T22:05:28;7.65;;;3.72;;
1523;SDS011;755;53.658;10.118;2022-09-12T22:15:32;5.47;;;3.55;;
1523;SDS011;755;53.658;10.118;2022-09-12T22:25:40;5.17;;;3.30;;
1523;SDS011;755;53.658;10.118;2022-09-12T22:35:42;6.32;;;3.70;;
1523;SDS011;755;53.658;10.118;2022-09-12T22:45:45;7.38;;;3.72;;
1523;SDS011;755;53.658;10.118;2022-09-12T22:55:48;4.97;;;3.30;;
1523;SDS011;755;53.658;10.118;2022-09-12T23:05:51;4.25;;;3.10;;
1523;SDS011;755;53.658;10.118;2022-09-12T23:15:56;4.10;;;3.10;;
1523;SDS011;755;53.658;10.118;2022-09-12T23:26:01;6.10;;;3.20;;
1523;SDS011;755;53.658;10.118;2022-09-12T23:36:08;4.53;;;2.97;;
1523;SDS011;755;53.658;10.118;2022-09-12T23:46:15;3.95;;;3.25;;
1523;SDS011;755;53.658;10.118;2022-09-12T23:56:17;4.50;;;3.10;;
